Time;durP1;ratioP1;P1;durP2;ratioP2;P2;SDS_P1;SDS_P2;PMS_P1;PMS_P2;Temp;Humidity;BMP_temperature;BMP_pressure;BME280_temperature;BME280_humidity;BME280_pressure;Samples;Min_cycle;Max_cycle;Signal;HPM_P1;HPM_P2
2022/09/14 00:01:21;;;;;;;1.37;1.27;;;22.60;76.70;;;;;;4993982;28;20709;-73
2022/09/14 00:03:58;;;;;;;3.17;1.50;;;22.60;76.80;;;;;;4995280;28;20199;-72
2022/09/14 00:06:26;;;;;;;10.07;1.60;;;22.60;77.00;;;;;;4991923;28;20300;-72
2022/09/14 00:08:55;;;;;;;1.77;1.17;;;22.50;77.00;;;;;;4990273;28;20271;-71
2022/09/14 00:11:24;;;;;;;1.30;1.17;;;22.50;77.00;;;;;;4974317;28;20212;-71
2022/09/14 00:13:51;;;;;;;2.13;1.60;;;22.50;77.30;;;;;;4971780;28;20209;-72
2022/09/14 00:16:21;;;;;;;3.47;1.40;;;22.50;77.30;;;;;;4994260;28;20204;-73
2022/09/14 00:18:59;;;;;;;4.10;1.73;;;22.50;77.50;;;;;;4994682;28;20246;-73
2022/09/14 00:21:26;;;;;;;5.20;1.83;;;22.40;77.60;;;;;;4990759;28;20543;-72
2022/09/14 00:23:53;;;;;;;2.67;1.70;;;22.40;77.60;;;;;;4974481;28;20608;-72
2022/09/14 00:26:22;;;;;;;4.23;1.63;;;22.40;77.70;;;;;;4979427;28;20254;-72
2022/09/14 00:28:52;;;;;;;4.07;2.23;;;22.40;78.60;;;;;;4979447;28;20275;-72
2022/09/14 00:31:20;;;;;;;2.77;1.90;;;22.40;78.20;;;;;;4993717;28;20596;-73
2022/09/14 00:33:48;;;;;;;2.93;1.77;;;22.40;78.30;;;;;;4988659;28;20287;-72
2022/09/14 00:36:22;;;;;;;5.87;1.90;;;22.40;78.20;;;;;;4961741;28;20217;-72
2022/09/14 00:38:49;;;;;;;5.93;1.93;;;22.40;78.10;;;;;;4989365;28;20232;-72
2022/09/14 00:41:22;;;;;;;4.87;1.93;;;22.40;78.10;;;;;;4988574;28;20309;-72
2022/09/14 00:43:54;;;;;;;2.27;1.53;;;22.40;78.30;;;;;;4992126;28;20208;-73
2022/09/14 00:46:21;;;;;;;3.93;1.77;;;22.40;78.30;;;;;;4996852;28;20228;-72
2022/09/14 00:48:49;;;;;;;4.03;1.83;;;22.40;78.10;;;;;;4993061;28;20286;-72
2022/09/14 00:51:18;;;;;;;3.60;1.67;;;22.40;78.70;;;;;;4976191;28;20193;-72
2022/09/14 00:53:46;;;;;;;3.63;2.17;;;22.40;78.00;;;;;;4962328;28;20232;-73
2022/09/14 00:56:14;;;;;;;7.60;2.10;;;22.40;77.80;;;;;;4990539;28;20639;-73
2022/09/14 00:58:43;;;;;;;5.37;2.10;;;22.40;77.60;;;;;;4970384;28;20219;-73
2022/09/14 01:01:10;;;;;;;2.00;1.80;;;22.40;77.70;;;;;;4992295;28;20218;-72
2022/09/14 01:03:38;;;;;;;5.30;1.57;;;22.40;77.80;;;;;;4978115;28;20572;-72
2022/09/14 01:06:10;;;;;;;5.70;1.67;;;22.40;78.00;;;;;;4990081;28;20216;-72
2022/09/14 01:09:18;;;;;;;4.87;2.10;;;22.30;78.10;;;;;;4969907;28;20571;-72
2022/09/14 01:11:57;;;;;;;5.07;1.83;;;22.30;78.20;;;;;;4884898;29;20275;-72
2022/09/14 01:15:04;;;;;;;3.70;1.80;;;22.30;78.30;;;;;;4883688;29;20300;-73
2022/09/14 01:17:47;;;;;;;7.70;2.03;;;22.30;78.30;;;;;;4950115;28;20236;-72
2022/09/14 01:20:24;;;;;;;4.23;2.07;;;22.30;78.50;;;;;;4995154;28;20208;-73
2022/09/14 01:23:16;;;;;;;2.60;2.30;;;22.20;78.60;;;;;;4975914;28;20558;-72
2022/09/14 01:26:02;;;;;;;11.33;2.00;;;22.20;78.80;;;;;;4967842;28;20308;-73
2022/09/14 01:28:35;;;;;;;4.63;2.20;;;22.20;79.10;;;;;;4991148;28;20204;-72
2022/09/14 01:31:10;;;;;;;3.50;2.10;;;22.20;78.90;;;;;;4976126;28;20204;-72
2022/09/14 01:33:45;;;;;;;4.33;2.00;;;22.10;79.10;;;;;;4991626;28;20204;-73
2022/09/14 01:36:13;;;;;;;4.93;2.10;;;22.10;79.30;;;;;;4994610;28;20302;-73
2022/09/14 01:38:50;;;;;;;2.10;1.90;;;22.10;79.40;;;;;;4989411;28;20312;-72
2022/09/14 01:41:22;;;;;;;5.10;2.90;;;22.10;79.40;;;;;;4974424;28;20212;-72
2022/09/14 01:43:54;;;;;;;5.77;2.37;;;22.10;79.60;;;;;;4977520;28;20586;-72
2022/09/14 01:46:28;;;;;;;3.13;2.23;;;22.10;79.60;;;;;;4990712;28;20615;-72
2022/09/14 01:49:21;;;;;;;4.27;2.40;;;22.10;79.60;;;;;;4992914;28;20262;-72
2022/09/14 01:51:59;;;;;;;5.43;2.33;;;22.10;79.70;;;;;;4958732;28;20228;-73
2022/09/14 01:54:32;;;;;;;5.23;2.33;;;22.10;79.90;;;;;;4993909;28;20264;-72
2022/09/14 01:57:07;;;;;;;5.43;2.60;;;22.10;80.00;;;;;;4989691;28;20215;-72
2022/09/14 01:59:48;;;;;;;2.67;2.30;;;22.10;80.00;;;;;;4989992;28;20207;-73
2022/09/14 02:02:18;;;;;;;2.97;2.27;;;22.10;80.00;;;;;;4989962;28;20197;-72
2022/09/14 02:04:53;;;;;;;6.03;3.43;;;22.10;80.00;;;;;;4992467;28;20200;-73
2022/09/14 02:07:20;;;;;;;4.63;2.50;;;22.10;79.90;;;;;;4966220;28;20606;-72
2022/09/14 02:09:48;;;;;;;3.10;2.80;;;22.00;79.90;;;;;;4976920;28;20242;-72
2022/09/14 02:12:16;;;;;;;3.57;2.60;;;22.00;80.00;;;;;;4969391;28;20546;-72
2022/09/14 02:14:45;;;;;;;5.97;2.80;;;22.00;80.00;;;;;;4990298;28;20200;-72
2022/09/14 02:17:13;;;;;;;3.93;3.47;;;22.00;80.00;;;;;;4974075;28;20488;-72
2022/09/14 02:19:45;;;;;;;5.93;3.13;;;21.90;80.00;;;;;;4990452;28;20204;-72
2022/09/14 02:22:13;;;;;;;4.33;2.60;;;21.90;80.10;;;;;;4974779;28;20779;-72
2022/09/14 02:24:40;;;;;;;7.03;3.10;;;21.90;80.10;;;;;;4994438;28;20573;-73
2022/09/14 02:27:07;;;;;;;6.30;2.60;;;21.90;80.20;;;;;;4992010;28;20682;-72
2022/09/14 02:29:35;;;;;;;5.10;2.70;;;21.80;80.20;;;;;;4989650;28;20208;-72
2022/09/14 02:32:19;;;;;;;4.90;2.97;;;21.80;80.20;;;;;;4993469;28;20201;-73
2022/09/14 02:34:46;;;;;;;5.00;2.77;;;21.80;80.20;;;;;;4993824;28;20242;-72
2022/09/14 02:37:21;;;;;;;4.40;2.83;;;21.70;80.20;;;;;;4957865;28;20204;-72
2022/09/14 02:40:10;;;;;;;5.53;2.90;;;21.70;80.20;;;;;;4972179;28;20946;-72
2022/09/14 02:42:37;;;;;;;5.47;3.50;;;21.70;80.30;;;;;;4986866;28;20263;-72
2022/09/14 02:45:36;;;;;;;5.63;2.97;;;21.70;80.40;;;;;;4974618;28;20210;-73
2022/09/14 02:48:26;;;;;;;3.67;3.10;;;21.70;80.60;;;;;;4992704;28;20212;-72
2022/09/14 02:51:02;;;;;;;3.27;2.67;;;21.70;80.60;;;;;;4958600;28;20642;-72
2022/09/14 02:53:34;;;;;;;16.03;3.10;;;21.60;80.70;;;;;;4990676;28;20212;-72
2022/09/14 02:56:04;;;;;;;5.40;3.90;;;21.60;81.00;;;;;;4989307;28;20228;-72
2022/09/14 02:58:40;;;;;;;10.97;4.13;;;21.60;81.00;;;;;;4984049;28;20263;-73
2022/09/14 03:01:10;;;;;;;6.20;4.40;;;21.60;81.10;;;;;;4986161;28;20204;-72
2022/09/14 03:03:37;;;;;;;9.47;4.63;;;21.60;81.10;;;;;;4989044;28;20650;-73
2022/09/14 03:06:05;;;;;;;8.47;5.50;;;21.50;81.20;;;;;;4990295;28;20345;-73
2022/09/14 03:08:32;;;;;;;9.30;5.53;;;21.50;81.40;;;;;;4986089;28;20594;-73
2022/09/14 03:11:00;;;;;;;8.53;5.43;;;21.50;81.40;;;;;;4975977;28;20685;-73
2022/09/14 03:13:27;;;;;;;9.00;6.33;;;21.50;81.40;;;;;;4988180;28;20200;-72
2022/09/14 03:15:53;;;;;;;8.33;6.07;;;21.50;81.50;;;;;;4992811;28;20216;-73
2022/09/14 03:18:21;;;;;;;7.30;6.53;;;21.50;81.70;;;;;;4992213;28;21112;-72
2022/09/14 03:20:48;;;;;;;7.67;6.80;;;21.40;81.70;;;;;;4987368;28;20263;-72
2022/09/14 03:23:15;;;;;;;15.23;7.70;;;21.40;81.90;;;;;;4960527;28;20239;-72
2022/09/14 03:25:43;;;;;;;10.60;7.63;;;21.40;81.90;;;;;;4974412;28;20317;-72
2022/09/14 03:28:11;;;;;;;10.97;7.77;;;21.40;81.90;;;;;;4993288;28;20238;-72
2022/09/14 03:30:38;;;;;;;9.97;7.50;;;21.40;82.00;;;;;;4974079;28;20224;-72
2022/09/14 03:33:06;;;;;;;12.40;7.53;;;21.40;82.10;;;;;;4977452;28;21162;-72
2022/09/14 03:35:33;;;;;;;11.77;8.80;;;21.40;82.20;;;;;;4987857;28;20201;-72
2022/09/14 03:38:01;;;;;;;10.00;8.90;;;21.40;82.20;;;;;;4967641;28;20262;-73
2022/09/14 03:40:29;;;;;;;11.83;8.80;;;21.30;82.10;;;;;;4993026;28;20303;-72
2022/09/14 03:42:57;;;;;;;10.90;9.00;;;21.30;82.20;;;;;;4992322;28;20212;-72
2022/09/14 03:45:23;;;;;;;18.37;11.77;;;21.40;82.30;;;;;;4978542;28;20287;-72
2022/09/14 03:47:50;;;;;;;13.30;12.00;;;21.30;82.20;;;;;;4997370;28;20256;-72
2022/09/14 03:50:18;;;;;;;15.00;10.63;;;21.30;82.10;;;;;;4989035;28;20212;-73
2022/09/14 03:52:45;;;;;;;16.20;11.33;;;21.30;82.10;;;;;;4997208;28;20246;-72
2022/09/14 03:55:12;;;;;;;12.00;10.80;;;21.30;82.10;;;;;;4995229;28;20275;-72
2022/09/14 03:57:39;;;;;;;17.23;11.63;;;21.30;82.20;;;;;;4969177;28;20627;-73
2022/09/14 04:00:07;;;;;;;15.90;11.70;;;21.20;82.20;;;;;;4994855;28;20247;-72
2022/09/14 04:02:38;;;;;;;14.73;11.57;;;21.20;82.30;;;;;;4977689;28;20274;-73
2022/09/14 04:05:05;;;;;;;14.20;10.53;;;21.20;82.30;;;;;;4993392;28;20192;-72
2022/09/14 04:07:32;;;;;;;16.57;12.10;;;21.20;82.30;;;;;;4987884;28;20267;-72
2022/09/14 04:09:59;;;;;;;18.40;13.40;;;21.20;82.30;;;;;;4990981;28;20267;-72
2022/09/14 04:12:26;;;;;;;15.73;13.37;;;21.20;82.40;;;;;;4991150;28;20236;-74
2022/09/14 04:14:53;;;;;;;16.50;13.37;;;21.20;82.40;;;;;;4994099;28;20517;-72
2022/09/14 04:17:21;;;;;;;17.97;12.73;;;21.20;82.60;;;;;;4990047;28;20588;-72
2022/09/14 04:19:48;;;;;;;14.70;13.20;;;21.20;82.70;;;;;;4991815;28;20243;-73
2022/09/14 04:22:14;;;;;;;16.13;13.53;;;21.20;82.70;;;;;;4981046;28;20209;-72
2022/09/14 04:24:41;;;;;;;20.93;14.40;;;21.10;82.60;;;;;;4992342;28;20278;-72
2022/09/14 04:27:08;;;;;;;19.00;15.07;;;21.10;82.50;;;;;;4982974;28;20225;-72
2022/09/14 04:29:36;;;;;;;18.63;13.73;;;21.10;82.50;;;;;;4976048;28;21995;-72
2022/09/14 04:32:03;;;;;;;15.67;13.50;;;21.10;82.70;;;;;;4994403;28;20263;-72
2022/09/14 04:34:30;;;;;;;23.13;14.77;;;21.10;82.90;;;;;;4991150;28;20196;-72
2022/09/14 04:36:57;;;;;;;15.97;14.33;;;21.00;83.00;;;;;;4978611;28;20342;-72
2022/09/14 04:39:25;;;;;;;16.73;15.10;;;21.00;83.10;;;;;;4995079;28;20212;-72
2022/09/14 04:41:52;;;;;;;17.57;15.53;;;21.00;83.30;;;;;;4969864;28;20208;-73
2022/09/14 04:44:19;;;;;;;19.67;17.60;;;21.00;83.50;;;;;;4990699;28;20322;-72
2022/09/14 04:46:46;;;;;;;20.67;18.77;;;21.00;84.30;;;;;;4990931;28;20235;-72
2022/09/14 04:49:17;;;;;;;19.70;17.70;;;21.00;83.60;;;;;;4995729;28;20217;-72
2022/09/14 04:51:44;;;;;;;21.03;18.80;;;21.00;83.70;;;;;;4969597;28;20212;-72
2022/09/14 04:54:14;;;;;;;27.13;19.30;;;20.90;83.90;;;;;;4994024;28;20233;-73
2022/09/14 04:56:41;;;;;;;21.00;18.80;;;20.90;84.10;;;;;;4994202;28;20634;-73
2022/09/14 04:59:09;;;;;;;25.00;19.17;;;20.90;84.10;;;;;;4972146;28;20208;-72
2022/09/14 05:01:38;;;;;;;26.07;19.47;;;21.00;84.20;;;;;;4990790;28;20329;-72
2022/09/14 05:04:07;;;;;;;21.53;19.30;;;20.90;84.00;;;;;;4993729;28;20204;-72
2022/09/14 05:06:37;;;;;;;28.77;21.03;;;21.00;84.00;;;;;;4992030;28;20862;-72
2022/09/14 05:09:09;;;;;;;22.03;19.93;;;21.00;83.90;;;;;;4989223;28;20279;-72
2022/09/14 05:11:36;;;;;;;23.03;20.10;;;21.00;83.80;;;;;;4995760;28;20303;-72
2022/09/14 05:14:04;;;;;;;23.23;20.77;;;21.00;83.80;;;;;;4994189;28;20208;-72
2022/09/14 05:16:34;;;;;;;25.50;21.10;;;21.00;83.90;;;;;;4975811;28;20540;-72
2022/09/14 05:19:04;;;;;;;25.23;21.43;;;21.00;84.00;;;;;;4992969;28;20669;-72
2022/09/14 05:21:34;;;;;;;22.50;20.20;;;21.00;83.90;;;;;;4969927;28;20205;-72
2022/09/14 05:24:04;;;;;;;23.57;20.00;;;21.10;83.80;;;;;;4988256;28;20189;-72
2022/09/14 05:26:32;;;;;;;24.60;21.80;;;21.10;83.70;;;;;;4994988;28;20203;-73
2022/09/14 05:29:01;;;;;;;28.17;21.00;;;21.10;83.60;;;;;;4992340;28;20279;-73
2022/09/14 05:31:30;;;;;;;20.03;17.93;;;21.20;83.40;;;;;;4978309;28;20212;-72
2022/09/14 05:33:57;;;;;;;20.43;16.73;;;21.20;83.10;;;;;;4988841;28;20590;-72
2022/09/14 05:36:25;;;;;;;18.20;16.40;;;21.30;82.80;;;;;;4995181;28;20541;-72
2022/09/14 05:38:52;;;;;;;18.10;16.30;;;21.40;82.50;;;;;;4987044;28;20213;-72
2022/09/14 05:41:19;;;;;;;19.07;17.23;;;21.40;82.20;;;;;;4972071;28;20263;-73
2022/09/14 05:43:46;;;;;;;17.70;16.00;;;21.50;82.00;;;;;;4975318;28;20572;-73
2022/09/14 05:46:21;;;;;;;16.80;14.90;;;21.60;81.80;;;;;;4989332;28;20197;-72
2022/09/14 05:48:50;;;;;;;22.00;15.70;;;21.70;81.40;;;;;;4992180;28;20227;-72
2022/09/14 05:51:20;;;;;;;15.47;13.87;;;21.70;81.20;;;;;;4991042;28;20201;-72
2022/09/14 05:53:49;;;;;;;17.77;15.93;;;21.80;81.10;;;;;;4992456;28;20201;-72
2022/09/14 05:56:17;;;;;;;20.10;17.47;;;21.90;81.10;;;;;;4993648;28;20243;-72
2022/09/14 05:58:45;;;;;;;19.50;17.03;;;22.00;80.90;;;;;;4993270;28;20211;-72
2022/09/14 06:01:15;;;;;;;18.30;16.37;;;22.20;80.70;;;;;;4979020;28;20216;-72
2022/09/14 06:03:43;;;;;;;18.40;16.37;;;22.30;80.30;;;;;;4993160;28;20197;-72
2022/09/14 06:06:12;;;;;;;18.17;14.67;;;22.40;80.00;;;;;;4986930;28;20283;-72
2022/09/14 06:08:39;;;;;;;16.17;13.20;;;22.50;79.70;;;;;;4974890;28;20248;-72
2022/09/14 06:11:13;;;;;;;15.33;13.37;;;22.60;79.30;;;;;;4992639;28;20197;-73
2022/09/14 06:13:41;;;;;;;15.77;12.60;;;22.60;78.60;;;;;;4977982;28;20205;-71
2022/09/14 06:16:13;;;;;;;47.30;15.80;;;22.70;78.20;;;;;;4968821;28;20221;-72
2022/09/14 06:18:42;;;;;;;29.73;12.77;;;22.70;77.70;;;;;;4989007;28;20216;-72
2022/09/14 06:21:11;;;;;;;16.37;11.10;;;22.80;77.20;;;;;;4989197;28;20262;-72
2022/09/14 06:23:38;;;;;;;20.10;12.77;;;22.80;76.70;;;;;;4988587;28;20212;-72
2022/09/14 06:26:05;;;;;;;27.93;12.47;;;22.80;76.30;;;;;;4991235;28;20204;-72
2022/09/14 06:28:33;;;;;;;24.20;12.00;;;22.90;76.20;;;;;;4972451;28;20228;-72
2022/09/14 06:31:03;;;;;;;25.07;10.03;;;22.90;76.10;;;;;;4976564;28;20251;-73
2022/09/14 06:33:30;;;;;;;32.50;10.30;;;22.90;76.20;;;;;;4987991;28;20239;-72
2022/09/14 06:36:08;;;;;;;48.67;10.50;;;23.00;76.90;;;;;;4989514;28;20553;-73
2022/09/14 06:38:35;;;;;;;17.00;9.50;;;23.00;76.20;;;;;;4992526;28;20627;-72
2022/09/14 06:41:05;;;;;;;22.63;10.33;;;23.20;76.20;;;;;;4990605;28;20196;-72
2022/09/14 06:43:34;;;;;;;42.33;10.43;;;23.30;75.80;;;;;;4976526;28;20239;-72
2022/09/14 06:46:10;;;;;;;24.70;8.27;;;23.50;75.20;;;;;;4989800;28;20208;-72
2022/09/14 06:48:40;;;;;;;12.43;8.10;;;23.70;74.30;;;;;;4990936;28;20645;-73
2022/09/14 06:51:17;;;;;;;10.43;8.00;;;23.80;73.60;;;;;;4989314;28;20207;-73
2022/09/14 06:53:45;;;;;;;10.20;8.27;;;24.00;73.10;;;;;;4992452;28;20204;-74
2022/09/14 06:56:13;;;;;;;8.63;7.83;;;24.20;72.70;;;;;;4965989;28;20232;-73
2022/09/14 06:58:41;;;;;;;9.40;8.30;;;24.30;72.20;;;;;;4971989;28;20206;-73
2022/09/14 07:01:13;;;;;;;32.30;9.37;;;24.40;71.90;;;;;;4967376;28;20248;-72
2022/09/14 07:03:42;;;;;;;12.60;8.80;;;24.40;71.50;;;;;;4971160;28;20205;-72
2022/09/14 07:06:12;;;;;;;29.70;9.53;;;24.40;71.20;;;;;;4965269;28;20370;-73
2022/09/14 07:08:39;;;;;;;13.20;8.37;;;24.50;71.20;;;;;;4970350;28;20232;-72
2022/09/14 07:11:09;;;;;;;11.43;7.90;;;24.50;71.10;;;;;;4973124;28;20206;-72
2022/09/14 07:13:36;;;;;;;13.13;7.57;;;24.50;71.00;;;;;;4972176;28;20256;-72
2022/09/14 07:16:03;;;;;;;14.73;8.00;;;24.60;71.00;;;;;;4971634;28;20197;-72
2022/09/14 07:18:31;;;;;;;12.10;8.20;;;24.70;70.80;;;;;;4960374;28;20587;-73
2022/09/14 07:21:09;;;;;;;10.80;6.47;;;24.80;70.50;;;;;;4975872;28;20205;-73
2022/09/14 07:23:38;;;;;;;11.67;7.13;;;24.90;70.00;;;;;;4972555;28;20282;-73
2022/09/14 07:26:26;;;;;;;14.03;8.03;;;25.00;69.70;;;;;;4976178;28;20205;-73
2022/09/14 07:28:56;;;;;;;8.27;7.13;;;25.10;69.40;;;;;;4969271;28;20223;-73
2022/09/14 07:31:32;;;;;;;8.60;6.60;;;25.30;69.30;;;;;;4970174;28;20260;-72
2022/09/14 07:34:02;;;;;;;10.40;6.67;;;25.50;69.30;;;;;;4976138;28;20279;-72
2022/09/14 07:36:31;;;;;;;14.37;6.57;;;25.70;68.80;;;;;;4973419;28;20206;-72
2022/09/14 07:39:03;;;;;;;14.77;6.63;;;25.90;68.00;;;;;;4976441;28;20211;-73
2022/09/14 07:41:32;;;;;;;9.43;5.97;;;26.10;67.20;;;;;;4972459;28;20255;-72
2022/09/14 07:44:02;;;;;;;12.50;6.67;;;26.20;66.40;;;;;;4974933;28;20271;-73
2022/09/14 07:46:35;;;;;;;13.23;6.70;;;26.30;65.70;;;;;;4978211;28;20201;-73
2022/09/14 07:49:03;;;;;;;10.90;7.57;;;26.30;65.30;;;;;;4973685;28;20233;-72
2022/09/14 07:51:33;;;;;;;10.57;6.27;;;26.40;65.00;;;;;;4982314;28;20204;-72
2022/09/14 07:54:00;;;;;;;10.53;6.47;;;26.40;64.50;;;;;;4973711;28;20559;-72
2022/09/14 07:56:28;;;;;;;13.13;7.17;;;26.40;64.90;;;;;;4962441;28;20214;-72
2022/09/14 07:58:57;;;;;;;15.40;6.90;;;26.40;65.30;;;;;;4993049;28;20208;-73
2022/09/14 08:01:44;;;;;;;14.73;9.27;;;26.50;65.40;;;;;;4990167;28;20316;-72
2022/09/14 08:04:11;;;;;;;12.40;9.10;;;26.50;65.10;;;;;;4979216;28;20223;-72
2022/09/14 08:06:39;;;;;;;14.27;10.40;;;26.70;64.90;;;;;;4989625;28;20215;-73
2022/09/14 08:09:10;;;;;;;17.87;11.87;;;26.80;64.60;;;;;;4995809;28;20552;-73
2022/09/14 08:11:37;;;;;;;17.13;11.07;;;26.90;64.20;;;;;;4996613;28;20538;-73
2022/09/14 08:14:10;;;;;;;17.60;11.40;;;26.90;63.80;;;;;;4993527;28;20239;-72
2022/09/14 08:16:39;;;;;;;19.47;11.20;;;27.10;63.60;;;;;;4993141;28;20201;-73
2022/09/14 08:19:12;;;;;;;14.40;12.20;;;27.20;63.30;;;;;;4989848;28;20201;-73
2022/09/14 08:21:39;;;;;;;15.47;12.17;;;27.30;62.80;;;;;;4995580;28;20818;-72
2022/09/14 08:24:17;;;;;;;25.77;14.47;;;27.50;62.90;;;;;;4991574;28;20204;-72
2022/09/14 08:26:45;;;;;;;16.47;13.33;;;27.60;62.60;;;;;;4992818;28;20205;-72
2022/09/14 08:29:13;;;;;;;17.20;14.50;;;27.70;62.40;;;;;;4977027;28;20543;-72
2022/09/14 08:31:42;;;;;;;17.77;12.60;;;27.80;61.80;;;;;;4988626;28;20241;-72
2022/09/14 08:34:09;;;;;;;15.73;13.60;;;28.00;61.80;;;;;;4991489;28;20208;-73
2022/09/14 08:36:38;;;;;;;15.40;13.80;;;28.00;61.60;;;;;;4995396;28;20219;-72
2022/09/14 08:39:08;;;;;;;17.97;13.97;;;28.10;61.60;;;;;;4989604;28;20226;-73
2022/09/14 08:41:44;;;;;;;19.87;13.90;;;28.10;61.50;;;;;;4989314;28;20208;-72
2022/09/14 08:44:20;;;;;;;15.70;13.70;;;28.10;61.00;;;;;;4991033;28;20230;-73
2022/09/14 08:47:01;;;;;;;19.10;13.03;;;28.10;60.90;;;;;;4974442;28;20219;-72
2022/09/14 08:49:55;;;;;;;17.17;11.97;;;28.00;61.30;;;;;;4993879;28;20274;-73
2022/09/14 08:52:33;;;;;;;15.73;13.27;;;28.00;62.00;;;;;;4994006;28;20211;-73
2022/09/14 08:55:10;;;;;;;16.17;13.63;;;28.00;61.90;;;;;;4993224;28;20235;-72
2022/09/14 08:57:46;;;;;;;16.70;13.83;;;28.00;61.80;;;;;;4989823;28;20297;-73
2022/09/14 09:00:16;;;;;;;19.37;13.63;;;27.90;61.80;;;;;;4989146;28;20215;-72
2022/09/14 09:02:55;;;;;;;18.27;13.97;;;27.90;61.90;;;;;;4991875;28;20218;-72
2022/09/14 09:05:47;;;;;;;15.43;13.30;;;27.90;62.00;;;;;;4992208;28;20254;-72
2022/09/14 09:08:14;;;;;;;14.13;12.23;;;27.90;62.10;;;;;;4993698;28;20221;-72
2022/09/14 09:10:41;;;;;;;15.33;12.37;;;27.90;62.10;;;;;;4987420;28;20219;-73
2022/09/14 09:13:17;;;;;;;14.50;11.77;;;28.00;62.10;;;;;;4989192;28;20201;-73
2022/09/14 09:15:49;;;;;;;19.07;11.30;;;28.00;61.90;;;;;;4990209;28;20204;-72
2022/09/14 09:18:27;;;;;;;16.83;10.73;;;28.10;61.80;;;;;;4978672;28;20226;-72
2022/09/14 09:21:01;;;;;;;11.07;9.30;;;28.10;61.50;;;;;;4990184;28;20302;-73
2022/09/14 09:23:30;;;;;;;12.70;8.43;;;28.20;62.10;;;;;;4976538;28;20200;-72
2022/09/14 09:25:59;;;;;;;11.30;7.43;;;28.20;61.10;;;;;;4995643;28;20212;-72
2022/09/14 09:28:28;;;;;;;13.97;7.90;;;28.30;61.00;;;;;;4988877;28;20243;-72
2022/09/14 09:30:59;;;;;;;12.80;7.60;;;28.30;60.10;;;;;;4988628;28;20646;-72
2022/09/14 09:33:48;;;;;;;9.30;7.53;;;28.40;60.10;;;;;;4971876;28;20258;-72
2022/09/14 09:36:18;;;;;;;12.53;6.83;;;28.50;60.00;;;;;;4990890;28;20323;-73
2022/09/14 09:38:46;;;;;;;9.20;5.67;;;28.50;59.80;;;;;;4974725;28;20294;-72
2022/09/14 09:41:23;;;;;;;8.37;4.87;;;28.60;59.50;;;;;;4991059;28;20364;-72
2022/09/14 09:44:08;;;;;;;8.10;4.90;;;28.70;59.40;;;;;;4969676;28;20733;-73
2022/09/14 09:46:54;;;;;;;8.33;5.17;;;28.80;59.30;;;;;;4990354;28;20220;-73
2022/09/14 09:49:27;;;;;;;9.47;4.50;;;28.90;58.60;;;;;;4990329;28;20244;-72
2022/09/14 09:51:55;;;;;;;9.47;5.30;;;29.10;58.60;;;;;;4989982;28;20197;-73
2022/09/14 09:54:30;;;;;;;9.70;5.17;;;29.20;58.10;;;;;;4988801;28;20251;-73
2022/09/14 09:57:02;;;;;;;11.10;4.60;;;29.40;58.30;;;;;;4978627;28;20266;-72
2022/09/14 09:59:34;;;;;;;8.80;3.97;;;29.60;57.60;;;;;;4991241;28;20616;-72
2022/09/14 10:02:33;;;;;;;5.27;4.03;;;29.70;57.10;;;;;;4976824;28;20638;-73
2022/09/14 10:05:09;;;;;;;5.70;3.07;;;29.80;56.80;;;;;;4939241;28;20611;-72
2022/09/14 10:07:48;;;;;;;7.83;3.60;;;29.90;56.50;;;;;;4989079;28;20300;-73
2022/09/14 10:10:18;;;;;;;7.83;3.17;;;30.00;56.00;;;;;;4989680;28;20236;-72
2022/09/14 10:12:51;;;;;;;9.63;3.50;;;30.10;55.80;;;;;;4973417;28;20749;-72
2022/09/14 10:15:20;;;;;;;10.03;3.27;;;30.20;55.30;;;;;;4975017;28;20219;-72
2022/09/14 10:18:09;;;;;;;9.67;3.00;;;30.20;55.40;;;;;;4952229;28;20224;-72
2022/09/14 10:20:40;;;;;;;7.20;3.20;;;30.30;55.60;;;;;;4988306;28;20205;-72
2022/09/14 10:23:22;;;;;;;8.27;3.37;;;30.30;55.30;;;;;;4975449;28;20196;-72
2022/09/14 10:25:51;;;;;;;6.53;2.90;;;30.40;54.60;;;;;;4991331;28;20211;-72
2022/09/14 10:28:32;;;;;;;7.27;3.50;;;30.50;53.80;;;;;;4990479;28;20642;-72
2022/09/14 10:31:16;;;;;;;5.93;2.50;;;30.60;53.50;;;;;;4986972;28;20252;-73
2022/09/14 10:33:52;;;;;;;12.77;3.70;;;30.60;52.80;;;;;;4986998;28;20567;-72
2022/09/14 10:36:29;;;;;;;8.33;3.23;;;30.60;53.90;;;;;;4989045;28;20204;-73
2022/09/14 10:39:06;;;;;;;7.57;2.57;;;30.60;53.80;;;;;;4970174;28;20251;-72
2022/09/14 10:41:54;;;;;;;7.53;2.47;;;30.50;53.70;;;;;;4972744;28;20201;-72
2022/09/14 10:44:51;;;;;;;3.13;1.90;;;30.50;53.80;;;;;;4989482;28;20575;-72
2022/09/14 10:47:44;;;;;;;4.70;1.53;;;30.50;54.10;;;;;;4989830;28;20212;-72
2022/09/14 10:50:23;;;;;;;3.10;1.73;;;30.40;53.50;;;;;;4987050;28;20247;-72
2022/09/14 10:53:05;;;;;;;3.80;1.53;;;30.30;53.50;;;;;;4976354;28;20212;-72
2022/09/14 10:55:47;;;;;;;3.70;1.87;;;30.30;53.70;;;;;;4988220;28;20721;-72
2022/09/14 10:58:29;;;;;;;5.53;1.80;;;30.20;53.90;;;;;;4986461;28;20243;-72
2022/09/14 11:01:13;;;;;;;7.63;1.97;;;30.10;54.30;;;;;;4989996;28;20211;-73
2022/09/14 11:03:57;;;;;;;3.93;1.90;;;30.00;54.20;;;;;;4991538;28;20243;-72
2022/09/14 11:06:37;;;;;;;3.27;1.67;;;29.90;54.50;;;;;;4990185;28;20246;-73
2022/09/14 11:09:33;;;;;;;6.23;2.20;;;29.90;54.80;;;;;;4988353;28;20650;-72
2022/09/14 11:12:06;;;;;;;5.93;1.80;;;29.80;55.20;;;;;;4989631;28;20201;-72
2022/09/14 11:15:01;;;;;;;4.53;2.07;;;29.70;55.00;;;;;;4989611;28;20212;-72
2022/09/14 11:17:53;;;;;;;5.47;2.00;;;29.70;55.10;;;;;;4987930;28;20638;-72
2022/09/14 11:20:43;;;;;;;5.23;1.73;;;29.70;54.90;;;;;;4985359;28;20201;-73
2022/09/14 11:23:26;;;;;;;7.07;2.20;;;29.60;55.40;;;;;;4973157;28;20241;-72
2022/09/14 11:26:14;;;;;;;3.60;2.00;;;29.60;56.00;;;;;;4988817;28;20201;-73
2022/09/14 11:28:48;;;;;;;3.80;2.13;;;29.50;55.40;;;;;;4987350;28;20661;-72
2022/09/14 11:31:36;;;;;;;6.53;2.63;;;29.50;55.70;;;;;;4990093;28;20196;-72
2022/09/14 11:34:14;;;;;;;8.07;2.50;;;29.50;55.80;;;;;;4988665;28;20224;-72
2022/09/14 11:36:49;;;;;;;2.43;2.23;;;29.40;56.30;;;;;;4989351;28;20228;-72
2022/09/14 11:39:28;;;;;;;6.83;2.23;;;29.40;56.50;;;;;;4988563;28;20204;-72
2022/09/14 11:42:13;;;;;;;8.50;1.60;;;29.40;57.10;;;;;;4967390;28;20308;-72
2022/09/14 11:44:43;;;;;;;7.80;2.30;;;29.40;57.20;;;;;;4986130;28;20201;-72
2022/09/14 11:47:13;;;;;;;3.47;2.00;;;29.40;56.70;;;;;;4972953;28;20211;-71
2022/09/14 11:49:43;;;;;;;3.37;1.87;;;29.50;56.70;;;;;;4988376;28;20224;-71
2022/09/14 11:52:22;;;;;;;9.20;1.90;;;29.50;56.20;;;;;;4988151;28;20213;-71
2022/09/14 11:54:50;;;;;;;8.23;2.63;;;29.50;55.70;;;;;;4988526;28;20295;-71
2022/09/14 11:57:24;;;;;;;6.57;2.13;;;29.60;55.60;;;;;;4990371;28;20216;-71
2022/09/14 12:00:00;;;;;;;7.33;2.30;;;29.60;55.10;;;;;;4959850;28;20273;-71
2022/09/14 12:02:27;;;;;;;6.80;2.03;;;29.70;54.70;;;;;;4992101;28;20204;-71
2022/09/14 12:05:07;;;;;;;5.77;2.10;;;29.90;54.50;;;;;;4973408;28;20240;-71
2022/09/14 12:07:44;;;;;;;4.83;2.17;;;29.90;54.50;;;;;;4992208;28;20295;-71
2022/09/14 12:10:16;;;;;;;9.47;2.57;;;30.00;54.30;;;;;;4993501;28;20223;-71
2022/09/14 12:12:51;;;;;;;7.53;2.10;;;30.20;54.20;;;;;;4974054;28;20649;-71
2022/09/14 12:15:24;;;;;;;2.47;1.70;;;30.40;54.10;;;;;;4975188;28;20192;-71
2022/09/14 12:18:04;;;;;;;2.83;1.50;;;30.50;53.90;;;;;;4988651;28;20266;-71
2022/09/14 12:20:37;;;;;;;3.07;1.60;;;30.70;54.10;;;;;;4978631;28;20205;-71
2022/09/14 12:23:19;;;;;;;2.47;1.27;;;30.80;54.00;;;;;;4989624;28;20209;-71
2022/09/14 12:26:04;;;;;;;3.67;1.30;;;30.90;53.80;;;;;;4992084;28;20208;-71
2022/09/14 12:28:35;;;;;;;4.20;1.57;;;30.90;53.80;;;;;;4977036;28;20293;-71
2022/09/14 12:31:01;;;;;;;4.43;1.20;;;31.00;53.70;;;;;;4994239;28;20220;-71
2022/09/14 12:33:34;;;;;;;4.33;1.37;;;31.00;53.80;;;;;;4993061;28;20271;-71
2022/09/14 12:36:30;;;;;;;1.97;1.20;;;31.00;53.80;;;;;;4975811;28;20857;-70
2022/09/14 12:38:57;;;;;;;4.40;1.50;;;31.00;53.80;;;;;;4990611;28;20630;-70
2022/09/14 12:41:44;;;;;;;3.90;1.50;;;31.10;53.70;;;;;;4995434;28;20213;-70
2022/09/14 12:44:33;;;;;;;3.73;1.20;;;31.20;53.70;;;;;;4990209;28;20666;-71
2022/09/14 12:47:27;;;;;;;2.47;1.47;;;31.40;53.30;;;;;;4990390;28;20574;-71
2022/09/14 12:50:08;;;;;;;3.30;1.40;;;31.50;52.80;;;;;;4971186;28;20221;-71
2022/09/14 12:52:43;;;;;;;3.63;1.40;;;31.60;53.30;;;;;;4994134;28;20216;-70
2022/09/14 12:55:43;;;;;;;2.67;1.40;;;31.60;53.20;;;;;;4992259;28;20682;-70
2022/09/14 12:58:22;;;;;;;5.50;1.30;;;31.60;52.70;;;;;;4992307;28;20612;-70
2022/09/14 13:01:14;;;;;;;3.70;1.40;;;31.60;52.70;;;;;;4991015;28;20201;-70
2022/09/14 13:03:50;;;;;;;2.87;1.23;;;31.60;52.80;;;;;;4991306;28;20211;-70
2022/09/14 13:06:19;;;;;;;3.93;1.37;;;31.60;53.20;;;;;;4994379;28;20838;-70
2022/09/14 13:08:51;;;;;;;1.80;1.23;;;31.60;53.30;;;;;;4992647;28;20255;-70